Time;durP1;ratioP1;P1;durP2;ratioP2;P2;SDS_P1;SDS_P2;PMS_P1;PMS_P2;Temp;Humidity;BMP_temperature;BMP_pressure;BME280_temperature;BME280_humidity;BME280_pressure;Samples;Min_cycle;Max_cycle;Signal;HPM_P1;HPM_P2
2023/09/08 00:01:51;;;;;;;517.17;255.23;;;;;;;;;;4948733;28;20197;-55
2023/09/08 00:04:17;;;;;;;484.23;232.93;;;;;;;;;;4944299;28;22282;-54
2023/09/08 00:06:43;;;;;;;476.70;228.07;;;;;;;;;;4945506;28;20315;-54
2023/09/08 00:09:09;;;;;;;509.90;247.10;;;;;;;;;;4948861;28;24135;-55
2023/09/08 00:11:34;;;;;;;534.00;258.07;;;;;;;;;;4941566;28;20190;-55
2023/09/08 00:14:00;;;;;;;490.77;235.10;;;;;;;;;;4950490;28;20245;-55
2023/09/08 00:16:29;;;;;;;484.50;231.10;;;;;;;;;;4942789;28;20190;-54
2023/09/08 00:18:55;;;;;;;580.73;297.03;;;;;;;;;;4943490;28;20182;-55
2023/09/08 00:21:21;;;;;;;463.70;217.80;;;;;;;;;;4950686;28;20186;-55
2023/09/08 00:23:47;;;;;;;433.20;202.73;;;;;;;;;;4948449;28;20731;-54
2023/09/08 00:26:13;;;;;;;468.57;219.70;;;;;;;;;;4947786;28;20220;-54
2023/09/08 00:28:39;;;;;;;510.07;241.27;;;;;;;;;;4949746;28;20190;-54
2023/09/08 00:31:05;;;;;;;492.40;231.13;;;;;;;;;;4947090;28;20637;-54
2023/09/08 00:33:31;;;;;;;559.57;268.93;;;;;;;;;;4943923;28;20630;-54
2023/09/08 00:35:57;;;;;;;496.40;236.00;;;;;;;;;;4939589;28;20216;-55
2023/09/08 00:38:23;;;;;;;452.10;212.37;;;;;;;;;;4950569;28;20178;-54
2023/09/08 00:40:49;;;;;;;457.77;217.97;;;;;;;;;;4948926;28;20198;-54
2023/09/08 00:43:15;;;;;;;454.87;214.17;;;;;;;;;;4949499;28;20206;-54
2023/09/08 00:45:42;;;;;;;452.90;213.23;;;;;;;;;;4949917;28;20196;-54
2023/09/08 00:48:08;;;;;;;516.53;254.63;;;;;;;;;;4946451;28;20326;-54
2023/09/08 00:50:35;;;;;;;529.00;262.63;;;;;;;;;;4946499;28;20246;-54
2023/09/08 00:53:01;;;;;;;447.07;209.73;;;;;;;;;;4949845;28;20256;-54
2023/09/08 00:55:27;;;;;;;500.30;236.47;;;;;;;;;;4947950;28;20209;-54
2023/09/08 00:57:53;;;;;;;515.57;250.70;;;;;;;;;;4946876;28;20728;-54
2023/09/08 01:00:19;;;;;;;493.13;234.23;;;;;;;;;;4950237;28;20273;-54
2023/09/08 01:02:45;;;;;;;448.67;212.40;;;;;;;;;;4949658;28;20186;-54
2023/09/08 01:05:14;;;;;;;476.27;225.03;;;;;;;;;;4946564;28;20276;-54
2023/09/08 01:07:40;;;;;;;490.27;227.60;;;;;;;;;;4945823;28;20206;-54
2023/09/08 01:10:06;;;;;;;515.70;245.33;;;;;;;;;;4948140;28;20953;-54
2023/09/08 01:12:36;;;;;;;481.40;225.67;;;;;;;;;;4943861;28;20677;-54
2023/09/08 01:15:02;;;;;;;501.97;237.30;;;;;;;;;;4941845;28;20223;-55
2023/09/08 01:17:28;;;;;;;487.53;233.07;;;;;;;;;;4947690;28;20217;-54
2023/09/08 01:19:55;;;;;;;479.03;226.43;;;;;;;;;;4939732;28;20848;-53
2023/09/08 01:22:36;;;;;;;460.37;213.93;;;;;;;;;;4946359;28;20190;-54
2023/09/08 01:25:08;;;;;;;484.00;227.90;;;;;;;;;;4943681;28;20661;-54
2023/09/08 01:27:35;;;;;;;536.40;266.50;;;;;;;;;;4944357;28;21658;-54
2023/09/08 01:30:02;;;;;;;486.13;229.47;;;;;;;;;;4948410;28;20202;-54
2023/09/08 01:32:29;;;;;;;517.30;242.57;;;;;;;;;;4948999;28;20190;-54
2023/09/08 01:34:57;;;;;;;503.43;234.73;;;;;;;;;;4946739;28;20218;-54
2023/09/08 01:37:23;;;;;;;468.67;221.17;;;;;;;;;;4945154;28;20190;-54
2023/09/08 01:39:49;;;;;;;509.20;245.97;;;;;;;;;;4944414;28;20175;-54
2023/09/08 01:42:15;;;;;;;490.70;233.80;;;;;;;;;;4942395;28;20185;-54
2023/09/08 01:44:41;;;;;;;510.23;243.23;;;;;;;;;;4949054;28;20206;-54
2023/09/08 01:47:07;;;;;;;474.00;221.03;;;;;;;;;;4944198;28;20193;-54
2023/09/08 01:49:33;;;;;;;524.57;252.57;;;;;;;;;;4945751;28;20241;-55
2023/09/08 01:51:59;;;;;;;445.30;208.80;;;;;;;;;;4951387;28;21076;-54
2023/09/08 01:54:25;;;;;;;451.23;210.30;;;;;;;;;;4957235;28;20350;-54
2023/09/08 01:56:51;;;;;;;472.07;226.37;;;;;;;;;;4947641;28;20187;-54
2023/09/08 01:59:17;;;;;;;450.27;209.03;;;;;;;;;;4936880;28;20201;-54
2023/09/08 02:01:43;;;;;;;441.07;204.93;;;;;;;;;;4958401;28;20757;-54
2023/09/08 02:04:09;;;;;;;491.20;235.30;;;;;;;;;;4952690;28;20289;-54
2023/09/08 02:06:35;;;;;;;480.33;226.47;;;;;;;;;;4948229;28;20293;-54
2023/09/08 02:09:01;;;;;;;484.77;231.23;;;;;;;;;;4957722;28;20272;-54
2023/09/08 02:11:26;;;;;;;462.67;217.40;;;;;;;;;;4945382;28;20206;-54
2023/09/08 02:13:53;;;;;;;479.70;229.93;;;;;;;;;;4948795;28;20205;-54
2023/09/08 02:16:19;;;;;;;490.20;231.87;;;;;;;;;;4952009;28;20186;-54
2023/09/08 02:18:45;;;;;;;522.00;252.00;;;;;;;;;;4949134;28;20517;-54
2023/09/08 02:21:11;;;;;;;459.10;213.90;;;;;;;;;;4952248;28;20182;-54
2023/09/08 02:23:37;;;;;;;526.87;251.87;;;;;;;;;;4939922;28;20601;-54
2023/09/08 02:26:03;;;;;;;515.53;243.33;;;;;;;;;;4942044;28;20226;-55
2023/09/08 02:28:29;;;;;;;531.57;253.50;;;;;;;;;;4948633;28;20234;-54
2023/09/08 02:30:56;;;;;;;464.77;216.50;;;;;;;;;;4945405;28;20919;-54
2023/09/08 02:33:21;;;;;;;492.80;238.93;;;;;;;;;;4947899;28;20579;-54
2023/09/08 02:35:47;;;;;;;478.87;227.60;;;;;;;;;;4946309;28;20209;-54
2023/09/08 02:38:13;;;;;;;444.03;205.93;;;;;;;;;;4954517;28;20274;-54
2023/09/08 02:40:39;;;;;;;537.87;266.40;;;;;;;;;;4948699;28;20209;-54
2023/09/08 02:43:05;;;;;;;466.07;214.93;;;;;;;;;;4954630;28;20210;-53
2023/09/08 02:45:31;;;;;;;473.97;220.70;;;;;;;;;;4946095;28;20272;-54
2023/09/08 02:47:57;;;;;;;463.57;213.47;;;;;;;;;;4952818;28;20198;-54
2023/09/08 02:50:23;;;;;;;484.57;233.40;;;;;;;;;;4944990;28;20920;-54
2023/09/08 02:52:50;;;;;;;484.07;229.83;;;;;;;;;;4942397;28;20228;-54
2023/09/08 02:55:16;;;;;;;461.27;213.87;;;;;;;;;;4951348;28;20285;-54
2023/09/08 02:57:42;;;;;;;474.63;217.50;;;;;;;;;;4951397;28;20749;-54
2023/09/08 03:00:08;;;;;;;492.73;230.87;;;;;;;;;;4948441;28;20648;-54
2023/09/08 03:02:34;;;;;;;491.50;230.40;;;;;;;;;;4948983;28;20182;-55
2023/09/08 03:05:03;;;;;;;504.53;247.87;;;;;;;;;;4943647;28;20257;-54
2023/09/08 03:07:30;;;;;;;471.63;218.90;;;;;;;;;;4944552;28;20622;-54
2023/09/08 03:09:56;;;;;;;493.33;233.00;;;;;;;;;;4949237;28;20541;-54
2023/09/08 03:12:21;;;;;;;484.43;221.57;;;;;;;;;;4946616;28;20190;-55
2023/09/08 03:14:47;;;;;;;525.70;249.23;;;;;;;;;;4950645;28;20251;-55
2023/09/08 03:17:13;;;;;;;455.40;206.40;;;;;;;;;;4952502;28;20662;-54
2023/09/08 03:19:40;;;;;;;506.50;237.80;;;;;;;;;;4943753;28;20194;-54
2023/09/08 03:22:06;;;;;;;471.73;221.73;;;;;;;;;;4945688;28;20190;-55
2023/09/08 03:24:31;;;;;;;474.43;216.07;;;;;;;;;;4947849;28;20206;-54
2023/09/08 03:26:58;;;;;;;486.97;228.13;;;;;;;;;;4948677;28;20866;-54
2023/09/08 03:29:23;;;;;;;487.07;229.77;;;;;;;;;;4946169;28;20230;-54
2023/09/08 03:31:49;;;;;;;530.77;252.77;;;;;;;;;;4947757;28;21221;-54
2023/09/08 03:34:15;;;;;;;459.23;210.70;;;;;;;;;;4953812;28;20258;-55
2023/09/08 03:36:41;;;;;;;497.07;230.70;;;;;;;;;;4942542;28;20240;-54
2023/09/08 03:39:09;;;;;;;481.33;226.13;;;;;;;;;;4948057;28;20707;-54
2023/09/08 03:41:35;;;;;;;500.00;234.00;;;;;;;;;;4945724;28;20186;-54
2023/09/08 03:44:01;;;;;;;477.30;226.13;;;;;;;;;;4945567;28;20276;-54
2023/09/08 03:46:27;;;;;;;463.73;217.40;;;;;;;;;;4952023;28;20195;-54
2023/09/08 03:48:58;;;;;;;539.60;264.73;;;;;;;;;;4946396;28;20260;-54
2023/09/08 03:51:24;;;;;;;470.80;218.00;;;;;;;;;;4940586;28;20553;-54
2023/09/08 03:53:51;;;;;;;531.30;252.87;;;;;;;;;;4936343;28;20211;-54
2023/09/08 03:56:17;;;;;;;482.67;223.87;;;;;;;;;;4947473;28;20194;-54
2023/09/08 03:58:43;;;;;;;481.87;222.03;;;;;;;;;;4947537;28;20196;-54
2023/09/08 04:01:09;;;;;;;454.90;207.73;;;;;;;;;;4952834;28;20192;-54
2023/09/08 04:03:35;;;;;;;492.73;229.10;;;;;;;;;;4949231;28;20744;-54
2023/09/08 04:06:00;;;;;;;502.90;235.87;;;;;;;;;;4942838;28;20938;-54
2023/09/08 04:08:26;;;;;;;460.97;207.80;;;;;;;;;;4949257;28;20178;-54
2023/09/08 04:10:52;;;;;;;496.40;234.30;;;;;;;;;;4943199;28;20671;-54
2023/09/08 04:13:18;;;;;;;502.80;234.70;;;;;;;;;;4954152;28;20638;-54
2023/09/08 04:15:44;;;;;;;512.70;241.83;;;;;;;;;;4947474;28;20236;-54
2023/09/08 04:18:10;;;;;;;452.93;206.23;;;;;;;;;;4953485;28;20613;-54
2023/09/08 04:20:36;;;;;;;506.27;235.67;;;;;;;;;;4946969;28;20265;-53
2023/09/08 04:23:02;;;;;;;460.80;214.43;;;;;;;;;;4949843;28;20498;-54
2023/09/08 04:25:28;;;;;;;469.63;214.83;;;;;;;;;;4945047;28;20196;-54
2023/09/08 04:27:54;;;;;;;488.57;224.23;;;;;;;;;;4945882;28;20194;-54
2023/09/08 04:30:21;;;;;;;533.83;250.73;;;;;;;;;;4950033;28;20664;-54
2023/09/08 04:32:47;;;;;;;472.03;213.53;;;;;;;;;;4947630;28;20272;-53
2023/09/08 04:35:13;;;;;;;480.47;226.50;;;;;;;;;;4938675;28;20228;-54
2023/09/08 04:37:39;;;;;;;490.07;223.53;;;;;;;;;;4946397;28;20669;-54
2023/09/08 04:40:07;;;;;;;436.40;194.67;;;;;;;;;;4944922;28;20252;-54
2023/09/08 04:42:33;;;;;;;472.17;213.30;;;;;;;;;;4951106;28;20191;-54
2023/09/08 04:44:59;;;;;;;467.07;211.87;;;;;;;;;;4952695;28;20217;-54
2023/09/08 04:47:25;;;;;;;450.93;201.37;;;;;;;;;;4956495;28;20698;-54
2023/09/08 04:49:50;;;;;;;538.47;253.90;;;;;;;;;;4943372;28;20780;-54
2023/09/08 04:52:16;;;;;;;486.57;219.40;;;;;;;;;;4954113;28;20650;-54
2023/09/08 04:54:42;;;;;;;450.33;205.77;;;;;;;;;;4956790;28;20701;-54
2023/09/08 04:57:08;;;;;;;441.40;196.63;;;;;;;;;;4961544;28;20213;-54
2023/09/08 04:59:36;;;;;;;452.93;202.23;;;;;;;;;;4959615;28;20187;-55
2023/09/08 05:02:03;;;;;;;427.73;194.57;;;;;;;;;;4946397;28;20275;-54
2023/09/08 05:04:29;;;;;;;439.20;201.57;;;;;;;;;;4960340;28;20214;-54
2023/09/08 05:06:55;;;;;;;439.93;201.40;;;;;;;;;;4949610;28;20252;-54
2023/09/08 05:09:21;;;;;;;466.80;217.37;;;;;;;;;;4946154;28;20209;-55
2023/09/08 05:11:47;;;;;;;483.53;226.73;;;;;;;;;;4947444;28;20268;-54
2023/09/08 05:14:13;;;;;;;482.30;220.70;;;;;;;;;;4953997;28;20269;-54
2023/09/08 05:16:45;;;;;;;459.63;207.90;;;;;;;;;;4950299;28;20241;-54
2023/09/08 05:19:12;;;;;;;474.10;217.60;;;;;;;;;;4941992;28;20190;-54
2023/09/08 05:21:39;;;;;;;577.17;286.00;;;;;;;;;;4914443;28;21860;-53
2023/09/08 05:24:05;;;;;;;498.67;233.67;;;;;;;;;;4932954;28;20249;-53
2023/09/08 05:26:31;;;;;;;503.10;236.47;;;;;;;;;;4947132;28;20223;-53
2023/09/08 05:28:57;;;;;;;532.87;263.90;;;;;;;;;;4942750;28;20194;-53
2023/09/08 05:31:23;;;;;;;446.90;202.83;;;;;;;;;;4944288;28;20190;-53
2023/09/08 05:33:49;;;;;;;541.97;258.77;;;;;;;;;;4943481;28;20264;-54
2023/09/08 05:36:15;;;;;;;515.20;246.07;;;;;;;;;;4931073;28;20644;-53
2023/09/08 05:38:41;;;;;;;541.87;257.97;;;;;;;;;;4936722;28;20214;-53
2023/09/08 05:41:07;;;;;;;483.50;227.83;;;;;;;;;;4931549;28;20378;-53
2023/09/08 05:43:33;;;;;;;486.37;233.93;;;;;;;;;;4929009;28;20232;-52
2023/09/08 05:45:59;;;;;;;538.47;255.67;;;;;;;;;;4940892;28;20684;-51
2023/09/08 05:48:25;;;;;;;552.90;269.47;;;;;;;;;;4933433;28;20186;-51
2023/09/08 05:50:51;;;;;;;515.13;241.27;;;;;;;;;;4936536;28;20744;-51
2023/09/08 05:53:17;;;;;;;546.03;261.70;;;;;;;;;;4932140;28;20329;-51
2023/09/08 05:55:43;;;;;;;567.17;275.93;;;;;;;;;;4922290;28;20550;-51
2023/09/08 05:58:09;;;;;;;465.13;213.63;;;;;;;;;;4955219;28;20262;-51
2023/09/08 06:00:35;;;;;;;514.00;245.13;;;;;;;;;;4939695;28;20260;-51
2023/09/08 06:03:01;;;;;;;459.80;212.03;;;;;;;;;;4954997;28;20739;-51
2023/09/08 06:05:27;;;;;;;485.50;226.63;;;;;;;;;;4959639;28;20221;-51
2023/09/08 06:07:53;;;;;;;566.67;272.27;;;;;;;;;;4942064;28;20249;-51
2023/09/08 06:10:19;;;;;;;487.13;229.13;;;;;;;;;;4957885;28;20241;-54
2023/09/08 06:12:45;;;;;;;580.53;294.17;;;;;;;;;;4950830;28;20189;-54
2023/09/08 06:15:11;;;;;;;478.37;223.23;;;;;;;;;;4969826;28;20716;-54
2023/09/08 06:17:36;;;;;;;473.33;222.77;;;;;;;;;;4956936;28;20258;-54
2023/09/08 06:20:03;;;;;;;474.77;222.57;;;;;;;;;;4945510;28;20245;-55
2023/09/08 06:22:29;;;;;;;524.77;250.33;;;;;;;;;;4957655;28;20226;-55
2023/09/08 06:24:55;;;;;;;515.07;249.43;;;;;;;;;;4940997;28;20213;-54
2023/09/08 06:27:21;;;;;;;464.63;221.53;;;;;;;;;;4963142;28;20568;-54
2023/09/08 06:29:47;;;;;;;568.27;282.37;;;;;;;;;;4945932;28;20701;-55
2023/09/08 06:32:13;;;;;;;472.00;222.60;;;;;;;;;;4937479;28;20435;-54
2023/09/08 06:34:39;;;;;;;469.47;220.80;;;;;;;;;;4953869;28;20218;-55
2023/09/08 06:37:05;;;;;;;515.57;251.20;;;;;;;;;;4960879;28;20252;-55
2023/09/08 06:39:31;;;;;;;488.03;234.80;;;;;;;;;;4938369;28;20849;-55
2023/09/08 06:41:57;;;;;;;568.10;290.70;;;;;;;;;;4913624;28;20617;-54
2023/09/08 06:44:23;;;;;;;559.30;258.83;;;;;;;;;;4923354;28;20232;-53
2023/09/08 06:46:48;;;;;;;623.30;286.73;;;;;;;;;;4929528;28;20218;-54
2023/09/08 06:49:15;;;;;;;575.40;266.97;;;;;;;;;;4905292;28;21750;-54
2023/09/08 06:51:40;;;;;;;568.83;271.17;;;;;;;;;;4919111;28;20194;-54
2023/09/08 06:54:07;;;;;;;468.83;225.90;;;;;;;;;;4912059;28;20234;-54
2023/09/08 06:56:33;;;;;;;575.27;268.50;;;;;;;;;;4944589;28;20258;-54
2023/09/08 06:58:59;;;;;;;599.63;278.53;;;;;;;;;;4921968;28;21792;-54
2023/09/08 07:01:25;;;;;;;455.83;220.10;;;;;;;;;;4921578;28;20985;-54
2023/09/08 07:03:51;;;;;;;578.90;275.17;;;;;;;;;;4932953;28;20214;-54
2023/09/08 07:06:17;;;;;;;479.40;225.07;;;;;;;;;;4948367;28;20193;-54
2023/09/08 07:08:43;;;;;;;511.97;244.73;;;;;;;;;;4947011;28;20324;-54
2023/09/08 07:11:09;;;;;;;455.27;222.17;;;;;;;;;;4946144;28;20798;-54
2023/09/08 07:13:35;;;;;;;465.83;227.63;;;;;;;;;;4949794;28;20237;-54
2023/09/08 07:16:01;;;;;;;493.97;241.90;;;;;;;;;;4942804;28;20225;-54
2023/09/08 07:18:28;;;;;;;640.77;298.33;;;;;;;;;;4923639;28;20898;-54
2023/09/08 07:20:54;;;;;;;550.43;258.27;;;;;;;;;;4908513;28;20418;-54
2023/09/08 07:23:20;;;;;;;552.63;268.97;;;;;;;;;;4914769;28;20243;-54
2023/09/08 07:25:47;;;;;;;617.93;290.67;;;;;;;;;;4912060;28;20336;-55
2023/09/08 07:28:13;;;;;;;589.23;280.27;;;;;;;;;;4912043;28;29271;-54
2023/09/08 07:30:38;;;;;;;715.70;330.20;;;;;;;;;;4908640;28;20200;-53
2023/09/08 07:33:05;;;;;;;620.73;292.83;;;;;;;;;;4923334;28;20226;-54
2023/09/08 07:35:31;;;;;;;554.60;267.10;;;;;;;;;;4928199;28;20261;-54
2023/09/08 07:37:57;;;;;;;583.23;277.47;;;;;;;;;;4934761;28;20415;-56
2023/09/08 07:40:23;;;;;;;619.60;296.97;;;;;;;;;;4925770;28;20214;-54
2023/09/08 07:42:49;;;;;;;593.83;289.27;;;;;;;;;;4913843;28;20642;-54
2023/09/08 07:45:15;;;;;;;533.90;263.20;;;;;;;;;;4914269;28;20213;-54
2023/09/08 07:47:43;;;;;;;555.23;274.47;;;;;;;;;;4936641;28;20253;-55
2023/09/08 07:50:19;;;;;;;602.23;292.60;;;;;;;;;;4930701;28;20218;-54
2023/09/08 07:52:46;;;;;;;547.20;278.93;;;;;;;;;;4930206;28;20248;-54
2023/09/08 07:55:12;;;;;;;512.97;273.13;;;;;;;;;;4922143;28;20241;-55
2023/09/08 07:57:37;;;;;;;553.50;299.60;;;;;;;;;;4924670;28;20187;-55
2023/09/08 08:00:04;;;;;;;499.23;271.17;;;;;;;;;;4933364;28;20230;-54
2023/09/08 08:02:31;;;;;;;521.83;280.17;;;;;;;;;;4934124;28;20580;-54
2023/09/08 08:04:57;;;;;;;716.63;399.33;;;;;;;;;;4923783;28;24676;-54
2023/09/08 08:07:23;;;;;;;515.70;279.00;;;;;;;;;;4886091;28;20222;-54
2023/09/08 08:09:49;;;;;;;538.80;297.63;;;;;;;;;;4925826;28;20845;-54
2023/09/08 08:12:15;;;;;;;551.63;303.03;;;;;;;;;;4935648;28;20198;-55
2023/09/08 08:14:41;;;;;;;590.73;333.20;;;;;;;;;;4902856;28;20381;-54
2023/09/08 08:17:06;;;;;;;517.60;286.97;;;;;;;;;;4917375;28;20560;-55
2023/09/08 08:19:32;;;;;;;490.73;270.90;;;;;;;;;;4921235;28;20218;-54
2023/09/08 08:21:58;;;;;;;480.43;264.57;;;;;;;;;;4946807;28;20247;-54
2023/09/08 08:24:24;;;;;;;554.33;314.50;;;;;;;;;;4923622;28;20301;-55
2023/09/08 08:26:51;;;;;;;553.73;309.87;;;;;;;;;;4923988;28;20230;-54
2023/09/08 08:29:17;;;;;;;519.30;292.43;;;;;;;;;;4926392;28;20229;-55
2023/09/08 08:31:43;;;;;;;479.17;271.40;;;;;;;;;;4938940;28;20609;-55
2023/09/08 08:34:09;;;;;;;539.10;308.57;;;;;;;;;;4933811;28;20230;-55
2023/09/08 08:36:35;;;;;;;541.63;308.90;;;;;;;;;;4933472;28;20530;-55
2023/09/08 08:39:02;;;;;;;652.03;383.73;;;;;;;;;;4923049;28;21594;-55
2023/09/08 08:41:29;;;;;;;532.20;300.10;;;;;;;;;;4925020;28;20521;-54
2023/09/08 08:43:56;;;;;;;605.17;353.63;;;;;;;;;;4918661;28;20233;-54
2023/09/08 08:46:23;;;;;;;486.53;269.90;;;;;;;;;;4925126;28;20257;-54
2023/09/08 08:48:49;;;;;;;554.97;322.30;;;;;;;;;;4927637;28;20273;-55
2023/09/08 08:51:17;;;;;;;486.77;279.60;;;;;;;;;;4931962;28;20854;-55
2023/09/08 08:53:43;;;;;;;548.53;317.07;;;;;;;;;;4930001;28;20638;-55
2023/09/08 08:56:10;;;;;;;488.63;277.73;;;;;;;;;;4922333;28;20342;-55
2023/09/08 08:58:37;;;;;;;563.37;331.53;;;;;;;;;;4913493;28;21378;-54
2023/09/08 09:01:04;;;;;;;540.40;318.37;;;;;;;;;;4926463;28;20423;-55
2023/09/08 09:03:31;;;;;;;534.30;314.37;;;;;;;;;;4929530;28;21772;-54
2023/09/08 09:05:59;;;;;;;500.77;294.27;;;;;;;;;;4939130;28;21015;-55
2023/09/08 09:08:25;;;;;;;499.30;293.70;;;;;;;;;;4940110;28;20213;-55
2023/09/08 09:10:52;;;;;;;583.50;344.87;;;;;;;;;;4914840;28;20229;-55
2023/09/08 09:13:18;;;;;;;554.20;327.10;;;;;;;;;;4914716;28;21499;-55
2023/09/08 09:15:45;;;;;;;492.73;290.93;;;;;;;;;;4927446;28;20301;-55
2023/09/08 09:18:11;;;;;;;517.57;305.13;;;;;;;;;;4938409;28;20214;-54
2023/09/08 09:20:37;;;;;;;509.87;293.57;;;;;;;;;;4930797;28;20650;-54
2023/09/08 09:23:03;;;;;;;532.20;312.70;;;;;;;;;;4933106;28;20228;-54
2023/09/08 09:25:30;;;;;;;549.63;327.37;;;;;;;;;;4914494;28;20279;-55
2023/09/08 09:27:57;;;;;;;546.00;324.03;;;;;;;;;;4935231;28;20182;-54
2023/09/08 09:30:23;;;;;;;551.10;325.13;;;;;;;;;;4929001;28;20557;-54
2023/09/08 09:32:59;;;;;;;498.37;300.90;;;;;;;;;;4931064;28;20210;-54
2023/09/08 09:35:40;;;;;;;548.50;337.83;;;;;;;;;;4927650;28;20257;-55
2023/09/08 09:38:06;;;;;;;567.57;340.37;;;;;;;;;;4926461;28;21416;-53
2023/09/08 09:40:32;;;;;;;631.10;383.67;;;;;;;;;;4927355;28;20226;-53
2023/09/08 09:42:59;;;;;;;580.90;348.73;;;;;;;;;;4927981;28;20197;-53
2023/09/08 09:45:25;;;;;;;507.97;308.00;;;;;;;;;;4930375;28;20191;-53
2023/09/08 09:47:52;;;;;;;584.40;354.30;;;;;;;;;;4924900;28;20642;-53
2023/09/08 09:50:47;;;;;;;544.90;334.33;;;;;;;;;;4948950;23;20233;-52
2023/09/08 09:53:14;;;;;;;566.80;341.57;;;;;;;;;;4920678;28;20240;-52
2023/09/08 09:55:41;;;;;;;496.50;333.67;;;;;;;;;;4957567;28;21031;-53
2023/09/08 09:58:08;;;;;;;409.23;276.90;;;;;;;;;;4976809;28;20229;-53
2023/09/08 10:00:34;;;;;;;468.03;304.90;;;;;;;;;;4975758;28;20205;-53
2023/09/08 10:03:00;;;;;;;423.93;300.60;;;;;;;;;;5004958;22;20239;-64
2023/09/08 10:05:27;;;;;;;406.70;290.73;;;;;;;;;;5019282;28;20682;-64
2023/09/08 10:07:53;;;;;;;427.83;300.13;;;;;;;;;;5021126;28;20212;-64
2023/09/08 10:10:20;;;;;;;441.57;304.53;;;;;;;;;;5019028;28;20260;-64
2023/09/08 10:12:46;;;;;;;446.10;312.27;;;;;;;;;;5016496;28;20203;-61
2023/09/08 10:15:13;;;;;;;397.80;285.63;;;;;;;;;;5006083;28;20212;-61
2023/09/08 10:17:42;;;;;;;419.27;297.97;;;;;;;;;;5023759;28;20257;-62
2023/09/08 10:20:11;;;;;;;415.93;296.43;;;;;;;;;;5023679;28;20376;-62
2023/09/08 10:22:39;;;;;;;407.13;286.27;;;;;;;;;;5024595;28;20559;-64
2023/09/08 10:25:06;;;;;;;467.60;330.43;;;;;;;;;;5020674;28;20224;-62
2023/09/08 10:27:33;;;;;;;419.87;306.03;;;;;;;;;;5020993;28;20195;-62
2023/09/08 10:30:01;;;;;;;432.10;305.03;;;;;;;;;;5014199;28;20208;-63
2023/09/08 10:32:27;;;;;;;419.77;311.97;;;;;;;;;;5022436;28;20674;-62
2023/09/08 10:34:54;;;;;;;423.87;310.63;;;;;;;;;;5023967;28;20251;-62
2023/09/08 10:37:25;;;;;;;430.67;317.27;;;;;;;;;;5006060;28;20716;-62
2023/09/08 10:39:51;;;;;;;410.77;301.77;;;;;;;;;;5016333;28;20183;-62
2023/09/08 10:42:17;;;;;;;506.23;349.87;;;;;;;;;;5000576;28;20191;-59
2023/09/08 10:44:49;;;;;;;507.17;347.20;;;;;;;;;;5007858;28;20220;-58
2023/09/08 10:47:18;;;;;;;569.00;377.37;;;;;;;;;;5008707;28;20224;-59
2023/09/08 10:49:45;;;;;;;525.43;362.17;;;;;;;;;;5004851;28;20231;-59
2023/09/08 10:52:12;;;;;;;549.97;370.83;;;;;;;;;;5008001;28;20232;-59
2023/09/08 10:54:41;;;;;;;521.43;356.73;;;;;;;;;;4993867;28;20583;-59
2023/09/08 10:57:13;;;;;;;519.00;364.53;;;;;;;;;;5005267;28;20315;-58
2023/09/08 10:59:39;;;;;;;530.50;358.70;;;;;;;;;;5010955;28;20235;-59
2023/09/08 11:02:05;;;;;;;580.43;401.03;;;;;;;;;;5001880;28;20343;-59
2023/09/08 11:04:32;;;;;;;544.17;374.77;;;;;;;;;;5008754;28;20787;-58
2023/09/08 11:06:58;;;;;;;549.60;383.17;;;;;;;;;;4998619;28;20319;-59
2023/09/08 11:09:24;;;;;;;504.10;357.73;;;;;;;;;;5014771;28;20192;-59
2023/09/08 11:11:50;;;;;;;534.80;381.03;;;;;;;;;;5012580;28;21205;-58
2023/09/08 11:14:16;;;;;;;532.90;378.90;;;;;;;;;;5013505;28;20810;-61
2023/09/08 11:16:43;;;;;;;544.77;382.40;;;;;;;;;;5012470;28;20208;-59
2023/09/08 11:19:10;;;;;;;523.20;372.50;;;;;;;;;;5014357;28;20303;-59
2023/09/08 11:21:36;;;;;;;510.93;368.67;;;;;;;;;;5014817;28;20526;-59
2023/09/08 11:24:06;;;;;;;518.77;371.70;;;;;;;;;;5013661;28;20212;-59
2023/09/08 11:26:35;;;;;;;528.57;376.90;;;;;;;;;;5006841;28;20936;-59
2023/09/08 11:29:01;;;;;;;545.03;396.37;;;;;;;;;;5018117;28;20216;-59
2023/09/08 11:31:27;;;;;;;521.57;374.37;;;;;;;;;;5017147;28;20216;-62
2023/09/08 11:33:55;;;;;;;480.73;352.07;;;;;;;;;;5009497;28;20287;-62
2023/09/08 11:36:21;;;;;;;487.57;364.30;;;;;;;;;;5011471;28;20717;-62
2023/09/08 11:38:47;;;;;;;529.67;390.20;;;;;;;;;;5011475;28;21030;-62
2023/09/08 11:41:13;;;;;;;507.60;379.67;;;;;;;;;;5011251;28;20220;-61
2023/09/08 11:43:39;;;;;;;521.27;382.73;;;;;;;;;;5013421;28;20239;-61
2023/09/08 11:46:05;;;;;;;535.97;389.13;;;;;;;;;;4991212;28;20216;-62
2023/09/08 11:48:32;;;;;;;493.07;378.17;;;;;;;;;;5018619;28;20187;-60
2023/09/08 11:50:58;;;;;;;552.57;401.73;;;;;;;;;;5014705;28;20208;-61
2023/09/08 11:53:25;;;;;;;556.70;416.10;;;;;;;;;;5010681;28;20930;-61
2023/09/08 11:55:51;;;;;;;520.23;392.63;;;;;;;;;;5011016;28;20232;-63
2023/09/08 11:58:18;;;;;;;536.77;399.50;;;;;;;;;;5015929;28;20216;-62
2023/09/08 12:00:45;;;;;;;492.30;384.93;;;;;;;;;;5005617;28;20285;-62
2023/09/08 12:03:15;;;;;;;591.17;438.37;;;;;;;;;;4983566;28;23854;-62
2023/09/08 12:05:42;;;;;;;559.50;420.20;;;;;;;;;;5007169;28;20310;-62
2023/09/08 12:08:07;;;;;;;557.47;427.57;;;;;;;;;;5008234;28;20560;-63
2023/09/08 12:10:40;;;;;;;572.13;437.23;;;;;;;;;;4997057;28;20231;-62
2023/09/08 12:13:07;;;;;;;514.60;391.80;;;;;;;;;;5008717;28;20663;-61
2023/09/08 12:15:34;;;;;;;533.70;420.27;;;;;;;;;;5006056;28;20728;-62
2023/09/08 12:18:00;;;;;;;560.33;435.10;;;;;;;;;;5006358;28;20200;-63
2023/09/08 12:20:26;;;;;;;560.37;437.37;;;;;;;;;;5002830;28;20220;-63
2023/09/08 12:22:52;;;;;;;537.00;435.80;;;;;;;;;;4999086;28;20223;-61
2023/09/08 12:25:19;;;;;;;608.97;483.73;;;;;;;;;;5001701;28;20212;-60
2023/09/08 12:27:46;;;;;;;554.67;431.73;;;;;;;;;;4997421;28;20254;-59
2023/09/08 12:30:24;;;;;;;531.37;422.37;;;;;;;;;;5010040;28;20184;-59
2023/09/08 12:32:51;;;;;;;560.90;451.20;;;;;;;;;;5009490;28;20212;-59
2023/09/08 12:35:23;;;;;;;636.27;491.13;;;;;;;;;;5001394;28;20228;-59
2023/09/08 12:38:02;;;;;;;581.77;455.03;;;;;;;;;;5003846;28;20693;-60
2023/09/08 12:40:29;;;;;;;618.87;478.43;;;;;;;;;;5002808;28;20224;-59
2023/09/08 12:42:55;;;;;;;523.33;433.33;;;;;;;;;;5002660;28;20184;-59
2023/09/08 12:45:22;;;;;;;573.67;460.43;;;;;;;;;;5006499;28;20207;-61
2023/09/08 12:47:48;;;;;;;588.33;475.57;;;;;;;;;;5005543;28;20215;-60
2023/09/08 12:50:14;;;;;;;562.60;463.80;;;;;;;;;;4999969;28;20278;-60
2023/09/08 12:52:40;;;;;;;551.70;440.70;;;;;;;;;;5006471;28;20260;-60
2023/09/08 12:55:07;;;;;;;604.57;482.73;;;;;;;;;;5003361;28;20227;-60
2023/09/08 12:57:33;;;;;;;585.03;468.43;;;;;;;;;;5003720;28;20195;-60
2023/09/08 12:59:59;;;;;;;573.87;468.43;;;;;;;;;;5005795;28;20566;-60
2023/09/08 13:02:25;;;;;;;581.33;474.43;;;;;;;;;;5009557;28;20232;-60
2023/09/08 13:04:51;;;;;;;584.60;476.17;;;;;;;;;;5008269;28;20578;-60
2023/09/08 13:07:17;;;;;;;575.83;477.07;;;;;;;;;;5008837;28;20705;-60
2023/09/08 13:09:43;;;;;;;545.47;459.50;;;;;;;;;;5010635;28;20192;-60
2023/09/08 13:12:10;;;;;;;553.37;457.77;;;;;;;;;;5003764;28;20255;-60
2023/09/08 13:14:35;;;;;;;618.13;499.83;;;;;;;;;;5006231;28;20212;-59
2023/09/08 13:17:02;;;;;;;594.27;480.10;;;;;;;;;;5009944;28;20221;-61
2023/09/08 13:19:29;;;;;;;609.97;494.60;;;;;;;;;;5002638;28;20339;-61
2023/09/08 13:21:55;;;;;;;533.87;453.90;;;;;;;;;;5004875;28;20179;-62
2023/09/08 13:24:21;;;;;;;564.97;483.13;;;;;;;;;;5010463;28;20568;-61
2023/09/08 13:26:48;;;;;;;538.77;461.37;;;;;;;;;;5006942;28;20219;-59
2023/09/08 13:29:14;;;;;;;569.37;478.83;;;;;;;;;;5007282;28;20220;-61
2023/09/08 13:31:40;;;;;;;536.40;463.17;;;;;;;;;;5016378;28;20219;-60
2023/09/08 13:34:06;;;;;;;581.43;492.93;;;;;;;;;;5011741;28;20227;-61
2023/09/08 13:36:32;;;;;;;548.90;471.50;;;;;;;;;;5011968;28;20220;-62
2023/09/08 13:38:58;;;;;;;555.83;477.37;;;;;;;;;;5010149;28;20265;-61
2023/09/08 13:41:24;;;;;;;550.67;490.27;;;;;;;;;;5009393;28;20322;-62
2023/09/08 13:43:50;;;;;;;544.97;485.30;;;;;;;;;;5015380;28;20259;-61
2023/09/08 13:46:16;;;;;;;590.13;520.97;;;;;;;;;;4998343;28;20231;-62
2023/09/08 13:48:42;;;;;;;560.90;501.10;;;;;;;;;;5019354;28;20310;-62